createdAt,value
2022-08-02T00:01:04.765Z,4.30
2022-08-02T00:03:33.334Z,4.20
2022-08-02T00:06:02.074Z,4.00
2022-08-02T00:08:30.653Z,4.30
2022-08-02T00:10:59.165Z,4.30
2022-08-02T00:13:27.801Z,3.80
2022-08-02T00:15:56.363Z,3.80
2022-08-02T00:18:25.055Z,3.90
2022-08-02T00:20:53.610Z,3.80
2022-08-02T00:23:22.255Z,3.40
2022-08-02T00:25:55.232Z,3.50
2022-08-02T00:28:27.662Z,4.30
2022-08-02T00:31:00.441Z,4.00
2022-08-02T00:34:26.473Z,3.60
2022-08-02T00:36:17.720Z,3.20
2022-08-02T00:38:48.106Z,4.20
2022-08-02T00:41:20.877Z,4.20
2022-08-02T00:43:52.189Z,3.90
2022-08-02T00:46:21.641Z,4.40
2022-08-02T00:48:50.269Z,4.00
2022-08-02T00:51:18.965Z,4.10
2022-08-02T00:53:47.561Z,3.40
2022-08-02T00:56:16.104Z,3.70
2022-08-02T00:58:44.608Z,3.90
2022-08-02T01:01:13.244Z,4.10
2022-08-02T01:03:42.080Z,3.50
2022-08-02T01:06:11.533Z,3.60
2022-08-02T01:08:40.462Z,3.10
2022-08-02T01:11:09.066Z,3.50
2022-08-02T01:13:37.783Z,3.30
2022-08-02T01:16:16.392Z,3.40
2022-08-02T01:18:53.727Z,3.50
2022-08-02T01:21:49.259Z,3.70
2022-08-02T01:24:46.503Z,3.80
2022-08-02T01:27:54.708Z,4.80
2022-08-02T01:30:23.649Z,4.70
2022-08-02T01:33:00.131Z,4.40
2022-08-02T01:35:50.485Z,3.80
2022-08-02T01:38:42.410Z,3.80
2022-08-02T01:41:18.329Z,3.70
2022-08-02T01:43:51.901Z,2.90
2022-08-02T01:46:21.640Z,3.50
2022-08-02T01:48:50.930Z,3.50
2022-08-02T01:51:40.514Z,3.90
2022-08-02T01:54:17.745Z,4.00
2022-08-02T01:56:50.359Z,4.00
2022-08-02T01:59:23.205Z,4.10
2022-08-02T02:01:54.441Z,3.90
2022-08-02T02:04:24.670Z,4.20
2022-08-02T02:06:54.833Z,3.90
2022-08-02T02:09:29.524Z,5.00
2022-08-02T02:12:05.227Z,3.70
2022-08-02T02:14:51.448Z,4.70
2022-08-02T02:17:52.922Z,4.60
2022-08-02T02:20:17.325Z,4.70
2022-08-02T02:22:48.490Z,4.70
2022-08-02T02:25:28.221Z,4.00
2022-08-02T02:28:14.089Z,4.30
2022-08-02T02:30:48.931Z,4.00
2022-08-02T02:33:20.679Z,4.30
2022-08-02T02:35:53.061Z,4.60
2022-08-02T02:38:23.209Z,5.00
2022-08-02T02:40:52.691Z,4.50
2022-08-02T02:43:23.021Z,5.00
2022-08-02T02:45:52.037Z,4.90
2022-08-02T02:48:21.749Z,5.30
2022-08-02T02:50:51.073Z,5.90
2022-08-02T02:53:20.852Z,6.00
2022-08-02T02:56:01.757Z,7.10
2022-08-02T02:58:33.093Z,6.50
2022-08-02T03:01:20.740Z,7.20
2022-08-02T03:04:12.760Z,6.90
2022-08-02T03:06:41.555Z,5.50
2022-08-02T03:09:11.403Z,5.70
2022-08-02T03:11:41.611Z,5.50
2022-08-02T03:14:12.621Z,6.40
2022-08-02T03:16:51.382Z,5.80
2022-08-02T03:19:22.752Z,5.90
2022-08-02T03:21:57.548Z,6.00
2022-08-02T03:26:57.263Z,5.00
2022-08-02T03:29:25.839Z,5.50
2022-08-02T03:31:55.246Z,5.10
2022-08-02T03:34:24.267Z,5.20
2022-08-02T03:36:57.032Z,5.70
2022-08-02T03:39:26.963Z,6.10
2022-08-02T03:41:56.218Z,5.70
2022-08-02T03:44:26.579Z,5.80
2022-08-02T03:46:55.288Z,5.70
2022-08-02T03:49:24.468Z,6.70
2022-08-02T03:51:54.534Z,6.60
2022-08-02T03:54:23.563Z,5.80
2022-08-02T03:57:07.568Z,5.90
2022-08-02T03:59:46.587Z,6.20
2022-08-02T04:02:15.216Z,6.50
2022-08-02T04:04:43.925Z,6.40
2022-08-02T04:07:12.501Z,6.30
2022-08-02T04:09:41.050Z,7.50
2022-08-02T04:12:09.969Z,8.50
2022-08-02T04:14:39.022Z,7.20
2022-08-02T04:17:11.336Z,7.80
2022-08-02T04:19:58.757Z,8.10
2022-08-02T04:22:37.997Z,7.30
2022-08-02T04:25:17.151Z,6.40
2022-08-02T04:27:50.392Z,7.80
2022-08-02T04:30:36.762Z,7.10
2022-08-02T04:33:07.241Z,6.90
2022-08-02T04:35:36.110Z,8.40
2022-08-02T04:38:09.449Z,7.80
2022-08-02T04:40:39.199Z,8.20
2022-08-02T04:43:07.802Z,7.50
2022-08-02T04:45:37.054Z,8.00
2022-08-02T04:48:06.574Z,8.70
2022-08-02T04:50:35.639Z,8.50
2022-08-02T04:53:04.403Z,9.60
2022-08-02T04:55:32.921Z,9.70
2022-08-02T04:58:03.958Z,8.50
2022-08-02T05:00:35.496Z,10.20
2022-08-02T05:03:04.077Z,9.90
2022-08-02T05:05:32.886Z,10.60
2022-08-02T05:08:01.484Z,10.90
2022-08-02T05:10:30.125Z,10.50
2022-08-02T05:12:58.748Z,9.90
2022-08-02T05:15:30.390Z,11.40
2022-08-02T05:18:01.835Z,11.40
2022-08-02T05:20:30.578Z,11.00
2022-08-02T05:22:59.088Z,10.40
2022-08-02T05:25:27.710Z,11.90
2022-08-02T05:27:56.213Z,11.50
2022-08-02T05:30:24.967Z,11.10
2022-08-02T05:32:53.509Z,11.60
2022-08-02T05:35:25.144Z,11.40
2022-08-02T05:37:53.766Z,12.10
2022-08-02T05:40:26.010Z,11.50
2022-08-02T05:42:55.909Z,10.60
2022-08-02T05:45:24.572Z,10.20
2022-08-02T05:47:53.498Z,10.20
2022-08-02T05:50:24.495Z,9.80
2022-08-02T05:53:09.749Z,10.00
2022-08-02T05:55:50.391Z,10.30
2022-08-02T05:58:31.086Z,11.70
2022-08-02T06:01:03.614Z,8.50
2022-08-02T06:03:39.527Z,12.30
2022-08-02T06:06:17.871Z,11.50
2022-08-02T06:08:58.619Z,9.40
2022-08-02T06:11:38.394Z,7.30
2022-08-02T06:14:08.087Z,8.90
2022-08-02T06:16:42.377Z,7.40
2022-08-02T06:19:15.179Z,10.20
2022-08-02T06:22:35.141Z,9.30
2022-08-02T06:24:35.207Z,9.50
2022-08-02T06:27:04.112Z,10.20
2022-08-02T06:29:38.711Z,8.30
2022-08-02T06:32:09.151Z,7.40
2022-08-02T06:34:41.374Z,10.20
2022-08-02T06:37:38.760Z,8.80
2022-08-02T06:40:40.757Z,7.50
2022-08-02T06:43:20.598Z,6.10
2022-08-02T06:45:49.367Z,8.50
2022-08-02T06:48:18.136Z,9.40
2022-08-02T06:50:46.708Z,7.40
2022-08-02T06:53:15.662Z,6.90
2022-08-02T06:55:44.921Z,5.60
2022-08-02T06:58:14.624Z,5.20
2022-08-02T07:00:44.142Z,5.10
2022-08-02T07:10:00.640Z,5.10
2022-08-02T07:12:33.055Z,4.60
2022-08-02T07:15:06.451Z,5.40
2022-08-02T07:17:36.346Z,5.60
2022-08-02T07:20:06.308Z,5.00
2022-08-02T07:22:34.894Z,3.50
2022-08-02T07:25:05.403Z,2.90
2022-08-02T07:27:34.250Z,3.90
2022-08-02T07:30:04.332Z,3.40
2022-08-02T07:38:25.006Z,3.70
2022-08-02T07:40:54.133Z,3.10
2022-08-02T07:43:22.618Z,3.90
2022-08-02T07:45:55.948Z,4.40
2022-08-02T07:48:29.306Z,3.60
2022-08-02T07:50:57.854Z,3.40
2022-08-02T07:53:50.314Z,3.00
2022-08-02T07:56:14.943Z,2.90
2022-08-02T07:58:43.942Z,3.10
2022-08-02T08:01:12.544Z,2.60
2022-08-02T08:03:41.109Z,2.40
2022-08-02T08:06:09.845Z,2.40
2022-08-02T08:08:38.481Z,2.20
2022-08-02T08:11:07.230Z,2.50
2022-08-02T08:13:35.883Z,2.40
2022-08-02T08:16:05.019Z,2.30
2022-08-02T08:18:33.540Z,2.50
2022-08-02T08:21:02.601Z,2.60
2022-08-02T08:23:33.072Z,1.90
2022-08-02T08:26:01.677Z,2.30
2022-08-02T08:28:30.322Z,2.60
2022-08-02T08:30:59.034Z,12.40
2022-08-02T08:33:27.992Z,3.00
2022-08-02T08:35:56.693Z,2.30
2022-08-02T08:38:25.331Z,1.80
2022-08-02T08:40:57.098Z,1.80
2022-08-02T08:43:28.711Z,2.40
2022-08-02T08:45:57.358Z,7.00
2022-08-02T08:48:30.948Z,2.60
2022-08-02T08:51:36.081Z,2.20
2022-08-02T08:54:10.154Z,2.40
2022-08-02T08:56:41.355Z,3.30
2022-08-02T08:59:10.215Z,2.00
2022-08-02T09:01:49.622Z,3.00
2022-08-02T09:04:19.896Z,2.40
2022-08-02T09:06:48.765Z,1.90
2022-08-02T09:09:17.484Z,2.70
2022-08-02T09:11:46.603Z,13.60
2022-08-02T09:14:29.039Z,2.30
2022-08-02T09:17:09.444Z,2.70
2022-08-02T09:19:39.094Z,1.70
2022-08-02T09:22:16.066Z,1.90
2022-08-02T09:24:51.604Z,1.40
2022-08-02T09:27:23.408Z,1.40
2022-08-02T09:30:12.136Z,1.90
2022-08-02T09:32:48.451Z,1.50
2022-08-02T09:36:05.978Z,2.00
2022-08-02T09:38:32.508Z,1.40
2022-08-02T09:41:02.066Z,2.50
2022-08-02T09:44:03.066Z,4.10
2022-08-02T09:46:30.931Z,1.10
2022-08-02T09:49:03.317Z,1.20
2022-08-02T09:51:54.498Z,1.20
2022-08-02T09:54:29.859Z,1.60
2022-08-02T09:57:01.767Z,1.90
2022-08-02T09:59:32.634Z,1.60
2022-08-02T10:02:04.216Z,1.50
2022-08-02T10:04:52.843Z,1.30
2022-08-02T10:07:41.688Z,3.20
2022-08-02T10:10:10.831Z,8.60
2022-08-02T10:12:39.505Z,3.20
2022-08-02T10:15:09.251Z,1.30
2022-08-02T10:17:38.325Z,1.00
2022-08-02T10:20:14.371Z,1.30
2022-08-02T10:22:44.212Z,1.30
2022-08-02T10:25:14.033Z,1.70
2022-08-02T10:28:04.251Z,1.80
2022-08-02T10:30:38.260Z,1.10
2022-08-02T10:33:10.548Z,1.00
2022-08-02T10:35:40.749Z,1.20
2022-08-02T10:38:11.880Z,1.50
2022-08-02T10:40:51.999Z,1.40
2022-08-02T10:43:32.825Z,1.30
2022-08-02T10:46:38.714Z,1.30
2022-08-02T10:49:38.109Z,1.30
2022-08-02T10:52:03.138Z,1.50
2022-08-02T10:54:31.643Z,1.00
2022-08-02T10:57:01.740Z,1.00
2022-08-02T10:59:36.312Z,5.10
2022-08-02T11:02:06.767Z,3.50
2022-08-02T11:04:44.122Z,1.40
2022-08-02T11:07:19.609Z,0.90
2022-08-02T11:09:51.354Z,1.00
2022-08-02T11:12:21.647Z,1.00
2022-08-02T11:15:01.791Z,1.10
2022-08-02T11:17:55.033Z,1.10
2022-08-02T11:20:25.523Z,1.10
2022-08-02T11:23:15.997Z,1.10
2022-08-02T11:26:03.282Z,1.00
2022-08-02T11:28:32.848Z,1.10
2022-08-02T11:31:02.703Z,1.20
2022-08-02T11:33:34.242Z,1.70
2022-08-02T11:36:07.403Z,1.40
2022-08-02T11:38:36.052Z,1.20
2022-08-02T11:41:09.542Z,1.20
2022-08-02T11:43:39.076Z,0.90
2022-08-02T11:46:15.945Z,1.00
2022-08-02T11:48:44.869Z,1.00
2022-08-02T11:51:17.115Z,1.30
2022-08-02T11:53:52.506Z,1.70
2022-08-02T11:56:32.980Z,1.10
2022-08-02T11:59:09.884Z,1.80
2022-08-02T12:01:45.918Z,2.00
2022-08-02T12:04:22.938Z,1.60
2022-08-02T12:06:58.307Z,2.50
2022-08-02T12:09:29.683Z,1.40
2022-08-02T12:12:02.075Z,0.90
2022-08-02T12:14:32.903Z,1.20
2022-08-02T12:17:20.059Z,1.50
2022-08-02T12:19:48.635Z,1.30
2022-08-02T12:22:27.569Z,7.60
2022-08-02T12:24:58.740Z,10.50
2022-08-02T12:27:33.076Z,1.40
2022-08-02T12:30:14.474Z,1.20
2022-08-02T12:32:44.384Z,1.30
2022-08-02T12:35:26.270Z,1.20
2022-08-02T12:37:56.470Z,1.30
2022-08-02T12:40:33.177Z,0.90
2022-08-02T12:43:08.407Z,1.50
2022-08-02T12:45:55.326Z,1.30
2022-08-02T12:48:38.449Z,1.20
2022-08-02T12:51:50.754Z,1.50
2022-08-02T12:54:31.507Z,1.20
2022-08-02T12:57:12.798Z,1.30
2022-08-02T12:59:44.616Z,1.30
2022-08-02T13:02:14.852Z,1.40
2022-08-02T13:04:49.774Z,2.00
2022-08-02T13:07:20.015Z,1.50
2022-08-02T13:09:50.219Z,1.20
2022-08-02T13:12:18.914Z,1.60
2022-08-02T13:14:47.743Z,1.60
2022-08-02T13:17:16.388Z,1.20
2022-08-02T13:19:44.924Z,1.40
2022-08-02T13:22:13.659Z,1.10
2022-08-02T13:24:55.367Z,2.00
2022-08-02T13:27:27.287Z,1.70
2022-08-02T13:29:57.633Z,1.20
2022-08-02T13:32:27.979Z,1.40
2022-08-02T13:34:58.770Z,2.30
2022-08-02T13:37:27.430Z,2.00
2022-08-02T13:40:20.138Z,1.40
2022-08-02T13:42:45.244Z,1.30
2022-08-02T13:45:14.466Z,1.40
2022-08-02T13:48:04.453Z,2.90
2022-08-02T13:50:33.714Z,1.50
2022-08-02T13:53:02.354Z,1.40
2022-08-02T13:55:31.035Z,1.30
2022-08-02T13:57:59.730Z,1.20
2022-08-02T14:00:35.410Z,1.20
2022-08-02T14:03:07.133Z,1.40
2022-08-02T14:05:48.108Z,1.30
2022-08-02T14:08:19.831Z,1.20
2022-08-02T14:10:50.746Z,1.10
2022-08-02T14:13:19.945Z,1.30
2022-08-02T14:15:49.420Z,2.00
2022-08-02T14:18:18.079Z,2.10
2022-08-02T14:20:46.901Z,3.90
2022-08-02T14:23:15.516Z,1.70
2022-08-02T14:25:44.130Z,1.80
2022-08-02T14:28:12.737Z,2.10
2022-08-02T14:30:41.653Z,1.20
2022-08-02T14:33:10.691Z,1.60
2022-08-02T14:35:39.347Z,2.00
2022-08-02T14:38:08.034Z,1.80
2022-08-02T14:40:36.637Z,2.10
2022-08-02T14:43:05.168Z,1.40
2022-08-02T14:45:39.842Z,1.80
2022-08-02T14:48:12.295Z,1.30
2022-08-02T14:50:40.962Z,1.50
2022-08-02T14:53:12.506Z,1.80
2022-08-02T14:55:43.083Z,1.90
2022-08-02T14:58:12.495Z,1.50
2022-08-02T15:00:42.118Z,1.60
2022-08-02T15:03:13.627Z,1.30
2022-08-02T15:05:42.193Z,1.50
2022-08-02T15:08:10.803Z,1.20
2022-08-02T15:10:40.593Z,1.20
2022-08-02T15:13:09.364Z,1.40
2022-08-02T15:15:43.135Z,1.40
2022-08-02T15:18:14.438Z,2.40
2022-08-02T15:20:46.209Z,2.60
2022-08-02T15:23:37.533Z,1.50
2022-08-02T15:26:07.262Z,1.40
2022-08-02T15:28:35.969Z,1.90
2022-08-02T15:31:05.321Z,1.60
2022-08-02T15:33:33.982Z,2.10
2022-08-02T15:36:02.585Z,1.80
2022-08-02T15:38:31.330Z,1.80
2022-08-02T15:40:59.951Z,1.60
2022-08-02T15:43:28.840Z,1.80
2022-08-02T15:45:57.358Z,2.10
2022-08-02T15:48:25.868Z,2.20
2022-08-02T15:50:54.583Z,1.80
2022-08-02T15:53:23.024Z,1.90
2022-08-02T15:56:05.556Z,1.40
2022-08-02T15:58:40.631Z,2.20
2022-08-02T16:01:12.944Z,2.20
2022-08-02T16:03:41.717Z,2.40
2022-08-02T16:06:10.779Z,1.60
2022-08-02T16:08:39.401Z,1.90
2022-08-02T16:11:23.324Z,1.80
2022-08-02T16:13:55.181Z,2.00
2022-08-02T16:16:31.089Z,2.70
2022-08-02T16:19:46.039Z,2.30
2022-08-02T16:21:50.690Z,2.30
2022-08-02T16:24:20.020Z,2.20
2022-08-02T16:26:49.643Z,2.60
2022-08-02T16:29:19.855Z,2.70
2022-08-02T16:31:48.456Z,20.10
2022-08-02T16:34:17.634Z,2.70
2022-08-02T16:36:46.784Z,2.70
2022-08-02T16:39:15.380Z,3.10
2022-08-02T16:41:50.908Z,2.90
2022-08-02T16:47:15.307Z,14.30
2022-08-02T16:50:05.936Z,2.80
2022-08-02T16:52:32.725Z,2.60
2022-08-02T16:55:02.055Z,2.60
2022-08-02T16:57:42.729Z,2.90
2022-08-02T17:00:14.267Z,2.80
2022-08-02T17:02:44.422Z,2.60
2022-08-02T17:08:07.351Z,2.90
2022-08-02T17:10:34.406Z,2.70
2022-08-02T17:13:11.658Z,5.70
2022-08-02T17:16:01.588Z,6.30
2022-08-02T17:18:30.511Z,2.50
2022-08-02T17:20:59.100Z,2.40
2022-08-02T17:24:06.193Z,2.00
2022-08-02T17:26:16.171Z,2.70
2022-08-02T17:29:16.106Z,3.00
2022-08-02T17:31:43.123Z,2.60
2022-08-02T17:34:13.347Z,3.80
2022-08-02T17:39:18.509Z,3.20
2022-08-02T17:41:50.604Z,2.10
2022-08-02T17:44:37.187Z,1.80
2022-08-02T17:47:11.529Z,1.70
2022-08-02T17:49:44.237Z,2.30
2022-08-02T17:55:07.860Z,1.30
2022-08-02T17:57:55.603Z,1.60
2022-08-02T18:00:37.350Z,2.30
2022-08-02T18:03:09.848Z,1.80
2022-08-02T18:05:53.039Z,2.00
2022-08-02T18:08:24.313Z,1.50
2022-08-02T18:10:54.451Z,2.80
2022-08-02T18:13:23.848Z,4.90
2022-08-02T18:15:59.107Z,3.40
2022-08-02T18:18:29.658Z,2.10
2022-08-02T18:21:08.082Z,1.40
2022-08-02T18:23:49.394Z,1.60
2022-08-02T18:26:20.829Z,1.60
2022-08-02T18:28:50.717Z,2.30
2022-08-02T18:31:22.950Z,2.40
2022-08-02T18:33:59.445Z,1.90
2022-08-02T18:36:31.977Z,1.50
2022-08-02T18:39:08.099Z,2.00
2022-08-02T18:41:38.099Z,2.00
2022-08-02T18:44:07.308Z,2.10
2022-08-02T18:46:35.849Z,2.20
2022-08-02T18:49:15.115Z,1.70
2022-08-02T18:52:03.354Z,1.70
2022-08-02T18:54:34.140Z,1.90
2022-08-02T18:57:12.372Z,1.50
2022-08-02T18:59:51.654Z,1.40
2022-08-02T19:02:20.192Z,2.10
2022-08-02T19:04:54.489Z,6.00
2022-08-02T19:07:23.559Z,3.20
2022-08-02T19:10:12.214Z,7.40
2022-08-02T19:12:40.998Z,22.50
2022-08-02T19:15:11.950Z,7.90
2022-08-02T19:17:55.471Z,2.50
2022-08-02T19:20:25.948Z,2.80
2022-08-02T19:22:57.920Z,2.30
2022-08-02T19:25:27.743Z,2.70
2022-08-02T19:27:56.877Z,2.20
2022-08-02T19:30:26.777Z,2.30
2022-08-02T19:33:00.280Z,2.00
2022-08-02T19:35:34.382Z,2.80
2022-08-02T19:38:11.265Z,2.90
2022-08-02T19:40:42.317Z,1.70
2022-08-02T19:44:23.106Z,1.90
2022-08-02T19:46:01.342Z,2.50
2022-08-02T19:48:30.082Z,2.30
2022-08-02T19:51:01.703Z,2.30
2022-08-02T19:53:47.299Z,2.10
2022-08-02T19:56:25.037Z,2.90
2022-08-02T19:58:57.049Z,2.50
2022-08-02T20:01:36.634Z,2.50
2022-08-02T20:04:13.532Z,2.70
2022-08-02T20:06:46.059Z,2.70
2022-08-02T20:12:06.303Z,2.30
2022-08-02T20:14:38.565Z,3.10
2022-08-02T20:17:21.099Z,2.30
2022-08-02T20:19:50.290Z,2.90
2022-08-02T20:22:21.003Z,2.30
2022-08-02T20:24:49.806Z,3.50
2022-08-02T20:27:23.797Z,3.70
2022-08-02T20:29:53.574Z,2.70
2022-08-02T20:32:23.364Z,3.20
2022-08-02T20:34:53.098Z,2.60
2022-08-02T20:40:16.644Z,2.50
2022-08-02T20:42:48.125Z,2.40
2022-08-02T20:45:18.994Z,3.70
2022-08-02T20:47:51.067Z,3.20
2022-08-02T20:50:41.216Z,3.60
2022-08-02T20:53:23.729Z,2.70
2022-08-02T20:55:56.335Z,2.80
2022-08-02T20:58:27.289Z,4.10
2022-08-02T21:01:14.132Z,3.80
2022-08-02T21:03:43.080Z,3.10
2022-08-02T21:06:14.871Z,3.20
2022-08-02T21:08:46.073Z,3.50
2022-08-02T21:11:15.124Z,3.30
2022-08-02T21:13:46.366Z,3.50
2022-08-02T21:16:19.140Z,3.60
2022-08-02T21:18:49.427Z,3.10
2022-08-02T21:21:18.501Z,3.50
2022-08-02T21:23:48.786Z,3.40
2022-08-02T21:26:28.612Z,4.30
2022-08-02T21:29:04.297Z,3.90
2022-08-02T21:31:36.078Z,4.70
2022-08-02T21:34:22.049Z,4.00
2022-08-02T21:36:55.506Z,4.00
2022-08-02T21:39:24.836Z,4.30
2022-08-02T21:41:53.980Z,4.30
2022-08-02T21:44:22.870Z,3.80
2022-08-02T21:46:55.517Z,3.70
2022-08-02T21:49:40.471Z,4.40
2022-08-02T21:52:15.245Z,4.70
2022-08-02T21:54:45.785Z,3.80
2022-08-02T21:57:16.767Z,3.60
2022-08-02T21:59:46.895Z,3.50
2022-08-02T22:02:18.487Z,3.50
2022-08-02T22:04:47.977Z,4.10
2022-08-02T22:07:24.192Z,5.10
2022-08-02T22:09:53.633Z,4.80
2022-08-02T22:12:26.526Z,5.00
2022-08-02T22:14:56.678Z,4.50
2022-08-02T22:17:51.424Z,4.80
2022-08-02T22:20:19.985Z,6.40
2022-08-02T22:22:52.191Z,4.60
2022-08-02T22:25:36.907Z,5.10
2022-08-02T22:28:35.210Z,6.00
2022-08-02T22:31:04.664Z,5.40
2022-08-02T22:34:00.200Z,5.00
2022-08-02T22:36:36.302Z,4.80
2022-08-02T22:39:19.405Z,4.30
2022-08-02T22:42:05.548Z,5.40
2022-08-02T22:44:35.994Z,5.10
2022-08-02T22:47:14.694Z,4.70
2022-08-02T22:49:51.669Z,4.30
2022-08-02T22:52:24.452Z,5.10
2022-08-02T22:54:53.155Z,4.90
2022-08-02T22:57:30.177Z,4.60
2022-08-02T22:58:34.616Z,7.30
2022-08-02T22:58:41.050Z,1.60
2022-08-02T22:58:55.828Z,2.40
2022-08-02T22:59:08.206Z,2.40
2022-08-02T23:00:00.686Z,5.80
2022-08-02T23:02:30.118Z,5.10
2022-08-02T23:04:58.927Z,6.40
2022-08-02T23:07:28.113Z,4.90
2022-08-02T23:10:06.429Z,4.80
2022-08-02T23:12:35.302Z,6.10
2022-08-02T23:15:04.662Z,4.80
2022-08-02T23:17:52.829Z,5.40
2022-08-02T23:20:22.061Z,6.30
2022-08-02T23:22:50.993Z,5.60
2022-08-02T23:25:20.563Z,6.70
2022-08-02T23:27:51.145Z,5.30
2022-08-02T23:30:20.862Z,6.40
2022-08-02T23:32:49.391Z,4.80
2022-08-02T23:35:18.195Z,5.20
2022-08-02T23:38:00.429Z,5.00
2022-08-02T23:40:40.309Z,5.20
2022-08-02T23:43:13.402Z,5.30
2022-08-02T23:45:45.969Z,6.50
2022-08-02T23:48:14.926Z,5.10
2022-08-02T23:50:43.481Z,5.30
2022-08-02T23:53:11.955Z,5.90
2022-08-02T23:55:40.560Z,4.50
2022-08-02T23:58:09.342Z,3.90
